createdAt,value
2022-08-21T00:02:23.535Z,99.90
2022-08-21T00:04:57.267Z,99.90
2022-08-21T00:07:25.409Z,99.90
2022-08-21T00:09:52.547Z,99.90
2022-08-21T00:12:19.349Z,99.90
2022-08-21T00:14:46.102Z,99.90
2022-08-21T00:17:13.442Z,99.90
2022-08-21T00:19:40.395Z,99.90
2022-08-21T00:22:07.226Z,99.90
2022-08-21T00:24:34.342Z,99.90
2022-08-21T00:27:01.082Z,99.90
2022-08-21T00:29:27.759Z,99.90
2022-08-21T00:31:54.528Z,99.90
2022-08-21T00:34:21.578Z,99.90
2022-08-21T00:36:49.148Z,99.90
2022-08-21T00:39:15.902Z,99.90
2022-08-21T00:41:43.683Z,99.90
2022-08-21T00:44:12.987Z,99.90
2022-08-21T00:46:40.467Z,99.90
2022-08-21T00:49:09.068Z,99.90
2022-08-21T00:51:50.002Z,99.90
2022-08-21T00:54:19.481Z,99.90
2022-08-21T00:56:53.912Z,99.90
2022-08-21T00:59:23.510Z,99.90
2022-08-21T01:01:51.090Z,99.90
2022-08-21T01:04:18.179Z,99.90
2022-08-21T01:06:45.325Z,99.90
2022-08-21T01:09:12.818Z,99.90
2022-08-21T01:11:40.349Z,99.90
2022-08-21T01:14:07.198Z,99.90
2022-08-21T01:16:34.362Z,99.90
2022-08-21T01:19:01.219Z,99.90
2022-08-21T01:21:29.148Z,99.90
2022-08-21T01:23:57.924Z,99.90
2022-08-21T01:26:34.063Z,99.90
2022-08-21T01:29:03.983Z,99.90
2022-08-21T01:31:32.459Z,99.90
2022-08-21T01:33:59.394Z,99.90
2022-08-21T01:36:27.734Z,99.90
2022-08-21T01:38:54.541Z,99.90
2022-08-21T01:41:21.389Z,99.90
2022-08-21T01:43:48.388Z,99.90
2022-08-21T01:46:16.361Z,99.90
2022-08-21T01:48:44.201Z,99.90
2022-08-21T01:51:11.832Z,99.90
2022-08-21T01:53:39.260Z,99.90
2022-08-21T01:56:12.190Z,99.90
2022-08-21T01:58:40.867Z,99.90
2022-08-21T02:01:08.020Z,99.90
2022-08-21T02:03:36.153Z,99.90
2022-08-21T02:06:05.213Z,99.90
2022-08-21T02:08:32.338Z,99.90
2022-08-21T02:10:59.703Z,99.90
2022-08-21T02:13:27.158Z,99.90
2022-08-21T02:15:53.916Z,99.90
2022-08-21T02:18:20.706Z,99.90
2022-08-21T02:20:49.555Z,99.90
2022-08-21T02:23:27.289Z,99.90
2022-08-21T02:25:58.867Z,99.90
2022-08-21T02:28:26.377Z,99.90
2022-08-21T02:30:55.379Z,99.90
2022-08-21T02:33:22.473Z,99.90
2022-08-21T02:35:51.376Z,99.90
2022-08-21T02:38:24.660Z,99.90
2022-08-21T02:40:52.329Z,99.90
2022-08-21T02:43:22.570Z,99.90
2022-08-21T02:45:50.422Z,99.90
2022-08-21T02:48:22.993Z,99.90
2022-08-21T02:50:58.046Z,99.90
2022-08-21T02:53:25.735Z,99.90
2022-08-21T02:55:53.689Z,99.90
2022-08-21T02:58:27.154Z,99.90
2022-08-21T03:00:54.974Z,99.90
2022-08-21T03:03:22.121Z,99.90
2022-08-21T03:05:49.411Z,99.90
2022-08-21T03:08:18.333Z,99.90
2022-08-21T03:10:49.187Z,99.90
2022-08-21T03:13:17.158Z,99.90
2022-08-21T03:15:44.457Z,99.90
2022-08-21T03:18:12.323Z,99.90
2022-08-21T03:20:40.941Z,99.90
2022-08-21T03:23:13.272Z,99.90
2022-08-21T03:25:42.112Z,99.90
2022-08-21T03:28:16.629Z,99.90
2022-08-21T03:30:45.908Z,99.90
2022-08-21T03:33:15.229Z,99.90
2022-08-21T03:35:47.694Z,99.90
2022-08-21T03:38:14.911Z,99.90
2022-08-21T03:40:43.655Z,99.90
2022-08-21T03:43:10.800Z,99.90
2022-08-21T03:45:39.338Z,99.90
2022-08-21T03:48:08.125Z,99.90
2022-08-21T03:50:40.610Z,99.90
2022-08-21T03:53:16.499Z,99.90
2022-08-21T03:55:47.516Z,99.90
2022-08-21T03:58:17.494Z,99.90
2022-08-21T04:00:47.580Z,99.90
2022-08-21T04:03:14.697Z,99.90
2022-08-21T04:05:42.617Z,99.90
2022-08-21T04:08:09.665Z,99.90
2022-08-21T04:10:39.049Z,99.90
2022-08-21T04:13:07.300Z,99.90
2022-08-21T04:15:35.050Z,99.90
2022-08-21T04:18:02.352Z,99.90
2022-08-21T04:20:29.314Z,99.90
2022-08-21T04:22:57.525Z,99.90
2022-08-21T04:25:26.718Z,99.90
2022-08-21T04:27:54.357Z,99.90
2022-08-21T04:30:21.478Z,99.90
2022-08-21T04:32:56.730Z,99.90
2022-08-21T04:35:25.622Z,99.90
2022-08-21T04:37:52.828Z,99.90
2022-08-21T04:40:21.767Z,99.90
2022-08-21T04:42:52.610Z,99.90
2022-08-21T04:45:29.293Z,99.90
2022-08-21T04:47:58.589Z,99.90
2022-08-21T04:50:40.307Z,99.90
2022-08-21T04:53:09.730Z,99.90
2022-08-21T04:55:38.462Z,99.90
2022-08-21T04:58:07.855Z,99.90
2022-08-21T05:00:34.957Z,99.90
2022-08-21T05:03:04.383Z,99.90
2022-08-21T05:05:31.486Z,99.90
2022-08-21T05:08:01.676Z,99.90
2022-08-21T05:10:29.189Z,99.90
2022-08-21T05:12:56.973Z,99.90
2022-08-21T05:15:24.278Z,99.90
2022-08-21T05:17:52.416Z,99.90
2022-08-21T05:20:24.875Z,99.90
2022-08-21T05:22:52.389Z,99.90
2022-08-21T05:25:19.376Z,99.90
2022-08-21T05:27:49.324Z,99.90
2022-08-21T05:30:21.300Z,99.90
2022-08-21T05:32:48.912Z,99.90
2022-08-21T05:35:16.464Z,99.90
2022-08-21T05:37:43.508Z,99.90
2022-08-21T05:40:21.503Z,99.90
2022-08-21T05:42:54.450Z,99.90
2022-08-21T05:45:43.554Z,99.90
2022-08-21T05:48:18.816Z,99.90
2022-08-21T05:50:47.201Z,99.90
2022-08-21T05:53:15.905Z,99.90
2022-08-21T05:55:46.550Z,99.90
2022-08-21T05:58:16.199Z,99.90
2022-08-21T06:00:51.885Z,99.90
2022-08-21T06:03:22.416Z,99.90
2022-08-21T06:05:49.573Z,99.90
2022-08-21T06:08:19.595Z,99.90
2022-08-21T06:10:48.151Z,99.90
2022-08-21T06:13:16.906Z,99.90
2022-08-21T06:15:43.841Z,99.90
2022-08-21T06:18:11.630Z,99.90
2022-08-21T06:20:38.933Z,99.90
2022-08-21T06:23:05.677Z,99.90
2022-08-21T06:25:33.123Z,99.90
2022-08-21T06:28:05.980Z,99.90
2022-08-21T06:30:33.236Z,99.90
2022-08-21T06:33:00.303Z,99.90
2022-08-21T06:35:27.556Z,99.90
2022-08-21T06:37:54.320Z,99.90
2022-08-21T06:40:21.108Z,99.90
2022-08-21T06:42:48.680Z,99.90
2022-08-21T06:45:15.460Z,99.90
2022-08-21T06:47:42.368Z,99.90
2022-08-21T06:50:09.622Z,99.90
2022-08-21T06:52:37.807Z,99.90
2022-08-21T06:55:11.489Z,99.90
2022-08-21T06:57:39.774Z,99.90
2022-08-21T07:00:08.034Z,99.90
2022-08-21T07:02:34.816Z,99.90
2022-08-21T07:05:17.656Z,99.90
2022-08-21T07:07:45.933Z,99.90
2022-08-21T07:10:22.348Z,99.90
2022-08-21T07:13:00.368Z,99.90
2022-08-21T07:15:30.506Z,99.90
2022-08-21T07:17:58.387Z,99.90
2022-08-21T07:20:25.562Z,99.90
2022-08-21T07:22:52.599Z,99.90
2022-08-21T07:25:19.321Z,99.90
2022-08-21T07:27:46.167Z,99.90
2022-08-21T07:30:13.296Z,99.90
2022-08-21T07:32:40.059Z,99.90
2022-08-21T07:35:07.126Z,99.90
2022-08-21T07:37:33.861Z,99.90
2022-08-21T07:40:00.626Z,99.90
2022-08-21T07:42:27.417Z,99.90
2022-08-21T07:44:56.465Z,99.90
2022-08-21T07:47:41.794Z,99.90
2022-08-21T07:50:13.352Z,99.90
2022-08-21T07:52:41.017Z,99.90
2022-08-21T07:55:09.820Z,99.90
2022-08-21T07:57:36.867Z,99.90
2022-08-21T08:00:10.116Z,99.90
2022-08-21T08:02:37.107Z,99.90
2022-08-21T08:05:10.183Z,99.90
2022-08-21T08:07:37.002Z,99.90
2022-08-21T08:10:05.582Z,99.90
2022-08-21T08:12:32.320Z,99.90
2022-08-21T08:15:00.224Z,99.90
2022-08-21T08:17:27.732Z,99.90
2022-08-21T08:19:54.913Z,99.90
2022-08-21T08:22:26.885Z,99.90
2022-08-21T08:24:53.944Z,99.90
2022-08-21T08:27:22.173Z,99.90
2022-08-21T08:29:49.872Z,99.90
2022-08-21T08:32:16.747Z,99.90
2022-08-21T08:34:44.144Z,99.90
2022-08-21T08:37:12.032Z,99.90
2022-08-21T08:39:39.644Z,99.90
2022-08-21T08:42:33.615Z,99.90
2022-08-21T08:45:07.792Z,99.90
2022-08-21T08:47:39.078Z,99.90
2022-08-21T08:50:41.993Z,99.90
2022-08-21T08:53:30.791Z,99.90
2022-08-21T08:55:58.460Z,99.90
2022-08-21T08:58:35.188Z,99.90
2022-08-21T09:01:06.492Z,99.90
2022-08-21T09:03:33.641Z,99.90
2022-08-21T09:06:11.073Z,99.90
2022-08-21T09:08:50.218Z,99.90
2022-08-21T09:11:32.993Z,99.90
2022-08-21T09:14:18.463Z,99.90
2022-08-21T09:17:14.992Z,99.90
2022-08-21T09:19:47.897Z,99.90
2022-08-21T09:22:34.402Z,99.90
2022-08-21T09:25:25.192Z,99.90
2022-08-21T09:27:52.345Z,99.90
2022-08-21T09:30:24.516Z,99.90
2022-08-21T09:32:51.181Z,99.90
2022-08-21T09:35:20.970Z,99.90
2022-08-21T09:37:58.994Z,99.90
2022-08-21T09:40:38.217Z,99.90
2022-08-21T09:43:27.017Z,99.40
2022-08-21T09:46:24.765Z,98.70
2022-08-21T09:48:57.395Z,98.90
2022-08-21T09:51:27.904Z,98.00
2022-08-21T09:54:06.251Z,97.80
2022-08-21T09:56:56.261Z,97.90
2022-08-21T09:59:37.183Z,96.90
2022-08-21T10:02:28.045Z,96.90
2022-08-21T10:05:17.074Z,96.40
2022-08-21T10:07:43.954Z,96.30
2022-08-21T10:10:23.969Z,95.80
2022-08-21T10:13:33.617Z,95.30
2022-08-21T10:16:06.076Z,95.20
2022-08-21T10:18:54.717Z,95.20
2022-08-21T10:21:27.118Z,94.50
2022-08-21T10:24:06.041Z,93.10
2022-08-21T10:26:52.723Z,92.30
2022-08-21T10:29:45.696Z,93.30
2022-08-21T10:32:33.970Z,93.50
2022-08-21T10:35:13.024Z,93.30
2022-08-21T10:37:57.911Z,92.70
2022-08-21T10:40:30.474Z,92.70
2022-08-21T10:43:09.385Z,91.60
2022-08-21T10:46:03.704Z,91.10
2022-08-21T10:48:37.975Z,91.60
2022-08-21T10:51:11.654Z,91.30
2022-08-21T10:54:12.804Z,91.50
2022-08-21T10:56:43.981Z,91.30
2022-08-21T10:59:28.015Z,90.00
2022-08-21T11:02:17.355Z,89.50
2022-08-21T11:05:35.459Z,87.50
2022-08-21T11:08:11.752Z,89.50
2022-08-21T11:10:57.640Z,89.10
2022-08-21T11:13:42.566Z,89.70
2022-08-21T11:16:36.844Z,88.30
2022-08-21T11:19:25.393Z,89.40
2022-08-21T11:22:16.264Z,88.60
2022-08-21T11:24:48.125Z,88.40
2022-08-21T11:27:21.186Z,87.90
2022-08-21T11:29:55.413Z,84.20
2022-08-21T11:32:43.987Z,83.70
2022-08-21T11:35:29.250Z,83.30
2022-08-21T11:38:02.785Z,80.80
2022-08-21T11:40:42.991Z,82.50
2022-08-21T11:43:24.544Z,82.00
2022-08-21T11:45:58.480Z,81.10
2022-08-21T11:49:06.703Z,79.70
2022-08-21T11:52:06.326Z,78.90
2022-08-21T11:54:36.744Z,79.20
2022-08-21T11:57:09.257Z,79.90
2022-08-21T11:59:46.316Z,79.70
2022-08-21T12:02:29.367Z,77.40
2022-08-21T12:05:08.729Z,77.10
2022-08-21T12:07:41.253Z,77.90
2022-08-21T12:10:17.741Z,77.00
2022-08-21T12:12:45.657Z,77.80
2022-08-21T12:15:25.705Z,77.60
2022-08-21T12:18:02.829Z,76.40
2022-08-21T12:20:50.230Z,76.50
2022-08-21T12:23:28.796Z,75.00
2022-08-21T12:26:21.311Z,74.60
2022-08-21T12:28:48.286Z,74.20
2022-08-21T12:31:20.321Z,73.30
2022-08-21T12:33:54.892Z,76.80
2022-08-21T12:36:26.843Z,77.50
2022-08-21T12:38:58.395Z,76.90
2022-08-21T12:41:53.717Z,77.60
2022-08-21T12:44:45.271Z,76.60
2022-08-21T12:47:30.681Z,76.50
2022-08-21T12:50:00.159Z,76.70
2022-08-21T12:52:49.565Z,76.50
2022-08-21T12:55:26.160Z,76.80
2022-08-21T12:57:52.853Z,76.90
2022-08-21T13:00:24.240Z,75.10
2022-08-21T13:02:53.001Z,75.60
2022-08-21T13:05:35.066Z,75.80
2022-08-21T13:08:10.221Z,76.90
2022-08-21T13:10:38.130Z,76.00
2022-08-21T13:13:12.333Z,76.10
2022-08-21T13:15:42.253Z,76.50
2022-08-21T13:18:26.250Z,76.00
2022-08-21T13:20:53.653Z,75.70
2022-08-21T13:23:28.746Z,75.90
2022-08-21T13:25:56.661Z,75.90
2022-08-21T13:28:23.728Z,75.10
2022-08-21T13:30:56.627Z,74.80
2022-08-21T13:33:36.338Z,74.70
2022-08-21T13:36:15.920Z,74.90
2022-08-21T13:38:44.795Z,74.30
2022-08-21T13:41:17.674Z,73.60
2022-08-21T13:43:55.250Z,73.50
2022-08-21T13:46:25.178Z,73.60
2022-08-21T13:48:52.279Z,74.10
2022-08-21T13:51:20.003Z,72.90
2022-08-21T13:53:53.432Z,73.20
2022-08-21T13:56:27.550Z,74.00
2022-08-21T13:58:55.652Z,75.60
2022-08-21T14:01:36.822Z,74.30
2022-08-21T14:04:27.136Z,74.10
2022-08-21T14:06:55.124Z,74.90
2022-08-21T14:09:42.803Z,75.20
2022-08-21T14:12:23.857Z,75.00
2022-08-21T14:14:51.533Z,75.00
2022-08-21T14:17:38.569Z,75.50
2022-08-21T14:20:08.076Z,75.20
2022-08-21T14:22:48.858Z,75.00
2022-08-21T14:25:19.098Z,75.40
2022-08-21T14:28:09.834Z,74.40
2022-08-21T14:30:40.504Z,74.00
2022-08-21T14:33:13.555Z,75.00
2022-08-21T14:35:41.415Z,73.20
2022-08-21T14:38:20.317Z,73.50
2022-08-21T14:40:50.923Z,73.20
2022-08-21T14:43:20.038Z,72.60
2022-08-21T14:45:47.556Z,71.70
2022-08-21T14:48:14.933Z,72.20
2022-08-21T14:50:41.928Z,71.90
2022-08-21T14:53:11.308Z,72.40
2022-08-21T14:55:57.957Z,73.10
2022-08-21T14:58:25.477Z,72.20
2022-08-21T15:00:56.232Z,71.50
2022-08-21T15:03:23.256Z,72.00
2022-08-21T15:05:50.834Z,72.40
2022-08-21T15:08:18.061Z,72.30
2022-08-21T15:11:08.664Z,73.10
2022-08-21T15:13:32.634Z,73.60
2022-08-21T15:15:59.844Z,73.80
2022-08-21T15:18:28.347Z,73.30
2022-08-21T15:20:55.189Z,72.20
2022-08-21T15:23:22.681Z,72.40
2022-08-21T15:25:50.619Z,72.50
2022-08-21T15:28:18.919Z,73.10
2022-08-21T15:30:46.869Z,72.70
2022-08-21T15:33:14.173Z,72.30
2022-08-21T15:35:41.196Z,72.10
2022-08-21T15:38:11.430Z,73.00
2022-08-21T15:40:38.892Z,73.00
2022-08-21T15:43:06.774Z,73.00
2022-08-21T15:45:34.497Z,72.10
2022-08-21T15:48:02.163Z,72.00
2022-08-21T15:50:29.980Z,72.80
2022-08-21T15:52:56.707Z,71.80
2022-08-21T15:55:24.477Z,72.00
2022-08-21T15:57:57.830Z,72.30
2022-08-21T16:00:25.502Z,71.40
2022-08-21T16:02:57.717Z,71.50
2022-08-21T16:05:24.641Z,72.50
2022-08-21T16:07:51.760Z,71.70
2022-08-21T16:10:22.596Z,72.30
2022-08-21T16:12:57.922Z,71.90
2022-08-21T16:15:26.751Z,71.60
2022-08-21T16:17:54.543Z,72.00
2022-08-21T16:20:27.936Z,71.30
2022-08-21T16:22:56.550Z,71.30
2022-08-21T16:25:24.108Z,71.50
2022-08-21T16:27:58.940Z,70.90
2022-08-21T16:30:27.051Z,71.10
2022-08-21T16:32:54.122Z,70.90
2022-08-21T16:35:22.098Z,70.90
2022-08-21T16:37:52.990Z,71.10
2022-08-21T16:40:23.046Z,70.90
2022-08-21T16:42:50.406Z,71.30
2022-08-21T16:45:21.164Z,71.40
2022-08-21T16:47:48.208Z,71.80
2022-08-21T16:50:19.354Z,70.90
2022-08-21T16:52:46.060Z,71.30
2022-08-21T16:55:13.016Z,71.50
2022-08-21T16:57:40.091Z,70.90
2022-08-21T17:00:12.035Z,71.20
2022-08-21T17:02:46.462Z,71.10
2022-08-21T17:05:14.354Z,71.00
2022-08-21T17:07:43.015Z,71.00
2022-08-21T17:10:12.467Z,71.00
2022-08-21T17:12:40.379Z,70.60
2022-08-21T17:15:13.820Z,70.60
2022-08-21T17:17:41.532Z,71.00
2022-08-21T17:20:09.249Z,71.30
2022-08-21T17:22:36.468Z,71.10
2022-08-21T17:25:03.979Z,71.20
2022-08-21T17:27:30.960Z,71.20
2022-08-21T17:29:58.065Z,70.60
2022-08-21T17:32:25.421Z,71.20
2022-08-21T17:34:52.681Z,71.20
2022-08-21T17:37:26.264Z,71.40
2022-08-21T17:39:55.479Z,70.90
2022-08-21T17:42:23.052Z,71.60
2022-08-21T17:44:49.863Z,71.80
2022-08-21T17:47:16.960Z,72.90
2022-08-21T17:49:43.898Z,72.60
2022-08-21T17:52:10.792Z,72.90
2022-08-21T17:54:37.828Z,73.00
2022-08-21T17:57:05.478Z,74.70
2022-08-21T17:59:33.067Z,74.90
2022-08-21T18:02:02.459Z,76.10
2022-08-21T18:04:30.055Z,76.40
2022-08-21T18:06:57.432Z,77.20
2022-08-21T18:09:28.058Z,78.20
2022-08-21T18:11:57.228Z,79.30
2022-08-21T18:14:28.687Z,79.90
2022-08-21T18:16:56.289Z,80.50
2022-08-21T18:19:25.969Z,80.50
2022-08-21T18:21:58.767Z,80.30
2022-08-21T18:24:27.392Z,80.20
2022-08-21T18:26:54.688Z,80.70
2022-08-21T18:29:22.771Z,81.90
2022-08-21T18:31:49.859Z,82.00
2022-08-21T18:34:31.622Z,82.50
2022-08-21T18:36:58.406Z,82.70
2022-08-21T18:39:36.314Z,82.90
2022-08-21T18:42:07.776Z,83.70
2022-08-21T18:44:34.757Z,84.00
2022-08-21T18:47:06.431Z,84.70
2022-08-21T18:49:33.616Z,84.80
2022-08-21T18:52:00.964Z,84.90
2022-08-21T18:54:30.110Z,85.30
2022-08-21T18:56:56.859Z,85.00
2022-08-21T18:59:26.781Z,85.00
2022-08-21T19:01:53.892Z,85.40
2022-08-21T19:04:42.991Z,85.40
2022-08-21T19:07:08.120Z,86.20
2022-08-21T19:09:34.859Z,86.30
2022-08-21T19:12:04.274Z,86.80
2022-08-21T19:14:31.144Z,87.10
2022-08-21T19:16:58.284Z,87.20
2022-08-21T19:19:25.183Z,87.60
2022-08-21T19:21:51.954Z,87.50
2022-08-21T19:24:23.345Z,87.80
2022-08-21T19:26:50.751Z,88.10
2022-08-21T19:29:34.764Z,88.60
2022-08-21T19:32:04.587Z,89.10
2022-08-21T19:34:31.548Z,89.90
2022-08-21T19:37:06.367Z,90.20
2022-08-21T19:39:38.507Z,90.40
2022-08-21T19:42:10.154Z,90.60
2022-08-21T19:44:39.530Z,90.80
2022-08-21T19:47:12.766Z,91.00
2022-08-21T19:49:50.604Z,91.30
2022-08-21T19:52:17.604Z,91.50
2022-08-21T19:54:44.883Z,91.70
2022-08-21T19:57:12.658Z,91.90
2022-08-21T19:59:40.668Z,91.90
2022-08-21T20:02:09.183Z,92.20
2022-08-21T20:04:36.193Z,92.30
2022-08-21T20:07:03.982Z,92.60
2022-08-21T20:09:31.450Z,92.70
2022-08-21T20:12:09.758Z,92.90
2022-08-21T20:14:43.014Z,93.00
2022-08-21T20:17:12.611Z,93.20
2022-08-21T20:19:42.860Z,93.30
2022-08-21T20:22:12.080Z,93.50
2022-08-21T20:24:41.901Z,93.80
2022-08-21T20:27:14.163Z,93.90
2022-08-21T20:29:43.129Z,94.20
2022-08-21T20:34:59.074Z,94.60
2022-08-21T20:37:36.164Z,94.70
2022-08-21T20:40:10.298Z,94.80
2022-08-21T20:42:44.939Z,95.30
2022-08-21T20:45:23.470Z,95.40
2022-08-21T20:48:17.740Z,95.70
2022-08-21T20:50:57.513Z,95.80
2022-08-21T20:53:43.750Z,96.20
2022-08-21T20:56:29.950Z,96.40
2022-08-21T20:59:12.383Z,96.70
2022-08-21T21:01:39.836Z,96.90
2022-08-21T21:04:32.887Z,97.20
2022-08-21T21:07:01.780Z,97.40
2022-08-21T21:09:45.777Z,97.60
2022-08-21T21:12:27.795Z,97.60
2022-08-21T21:14:59.776Z,97.90
2022-08-21T21:17:47.311Z,98.10
2022-08-21T21:20:25.022Z,98.30
2022-08-21T21:23:03.820Z,98.50
2022-08-21T21:25:47.093Z,98.70
2022-08-21T21:28:44.525Z,99.00
2022-08-21T21:31:16.751Z,99.20
2022-08-21T21:33:46.985Z,99.40
2022-08-21T21:36:43.887Z,99.50
2022-08-21T21:39:28.083Z,99.40
2022-08-21T21:42:30.121Z,99.60
2022-08-21T21:45:21.338Z,99.70
2022-08-21T21:48:12.799Z,99.90
2022-08-21T21:50:49.064Z,99.90
2022-08-21T21:53:38.836Z,99.90
2022-08-21T21:56:27.817Z,99.90
2022-08-21T21:59:29.873Z,99.90
2022-08-21T22:02:07.303Z,99.90
2022-08-21T22:04:51.421Z,99.90
2022-08-21T22:07:20.994Z,99.90
2022-08-21T22:10:19.876Z,99.90
2022-08-21T22:13:38.706Z,99.90
2022-08-21T22:16:06.422Z,99.90
2022-08-21T22:18:44.953Z,99.90
2022-08-21T22:24:17.972Z,99.90
2022-08-21T22:26:50.583Z,99.90
2022-08-21T22:29:21.623Z,99.90
2022-08-21T22:32:29.377Z,99.90
2022-08-21T22:35:15.487Z,99.90
2022-08-21T22:37:47.680Z,99.90
2022-08-21T22:40:24.198Z,99.90
2022-08-21T22:43:02.624Z,99.90
2022-08-21T22:45:32.130Z,99.90
2022-08-21T22:48:14.591Z,99.90
2022-08-21T22:51:05.662Z,99.90
2022-08-21T22:53:35.288Z,99.90
2022-08-21T22:56:05.889Z,99.90
2022-08-21T22:58:52.400Z,99.90
2022-08-21T23:01:22.085Z,99.90
2022-08-21T23:03:52.876Z,99.90
2022-08-21T23:06:43.964Z,99.90
2022-08-21T23:09:30.011Z,99.90
2022-08-21T23:12:21.196Z,99.90
2022-08-21T23:14:54.704Z,99.90
2022-08-21T23:17:50.701Z,99.90
2022-08-21T23:21:12.954Z,99.90
2022-08-21T23:24:02.764Z,99.90
2022-08-21T23:26:46.959Z,99.90
2022-08-21T23:29:35.039Z,99.90
2022-08-21T23:32:21.543Z,99.90
2022-08-21T23:35:06.801Z,99.90
2022-08-21T23:38:09.287Z,99.90
2022-08-21T23:40:36.176Z,99.90
2022-08-21T23:43:35.699Z,99.90
2022-08-21T23:46:52.055Z,99.90
2022-08-21T23:49:37.683Z,99.90
2022-08-21T23:52:33.144Z,99.90
2022-08-21T23:55:26.118Z,99.90
2022-08-21T23:58:11.948Z,99.90
